sensor_id;sensor_type;location;lat;lon;timestamp;P1;durP1;ratioP1;P2;durP2;ratioP2
7477;SDS011;3780;42.424;25.636;2022-12-13T00:00:07;1.63;;;1.10;;
7477;SDS011;3780;42.424;25.636;2022-12-13T00:02:34;1.20;;;0.90;;
7477;SDS011;3780;42.424;25.636;2022-12-13T00:04:59;1.83;;;1.10;;
7477;SDS011;3780;42.424;25.636;2022-12-13T00:07:25;1.30;;;1.17;;
7477;SDS011;3780;42.424;25.636;2022-12-13T00:09:50;1.92;;;1.02;;
7477;SDS011;3780;42.424;25.636;2022-12-13T00:12:15;1.52;;;1.20;;
7477;SDS011;3780;42.424;25.636;2022-12-13T00:14:41;1.77;;;1.13;;
7477;SDS011;3780;42.424;25.636;2022-12-13T00:17:06;1.40;;;0.98;;
7477;SDS011;3780;42.424;25.636;2022-12-13T00:19:31;1.70;;;1.13;;
7477;SDS011;3780;42.424;25.636;2022-12-13T00:21:56;1.85;;;1.10;;
7477;SDS011;3780;42.424;25.636;2022-12-13T00:24:22;1.23;;;0.90;;
7477;SDS011;3780;42.424;25.636;2022-12-13T00:26:47;1.15;;;0.90;;
7477;SDS011;3780;42.424;25.636;2022-12-13T00:29:12;1.65;;;1.00;;
7477;SDS011;3780;42.424;25.636;2022-12-13T00:31:38;1.55;;;1.02;;
7477;SDS011;3780;42.424;25.636;2022-12-13T00:34:03;1.45;;;1.00;;
7477;SDS011;3780;42.424;25.636;2022-12-13T00:36:28;1.70;;;1.20;;
7477;SDS011;3780;42.424;25.636;2022-12-13T00:38:54;1.20;;;0.90;;
7477;SDS011;3780;42.424;25.636;2022-12-13T00:41:25;0.77;;;0.70;;
7477;SDS011;3780;42.424;25.636;2022-12-13T00:43:51;1.20;;;0.77;;
7477;SDS011;3780;42.424;25.636;2022-12-13T00:46:18;0.85;;;0.80;;
7477;SDS011;3780;42.424;25.636;2022-12-13T00:48:45;1.15;;;0.95;;
7477;SDS011;3780;42.424;25.636;2022-12-13T00:51:12;2.13;;;0.88;;
7477;SDS011;3780;42.424;25.636;2022-12-13T00:53:37;2.05;;;0.70;;
7477;SDS011;3780;42.424;25.636;2022-12-13T00:56:03;0.50;;;0.40;;
7477;SDS011;3780;42.424;25.636;2022-12-13T00:58:28;0.70;;;0.50;;
7477;SDS011;3780;42.424;25.636;2022-12-13T01:01:01;0.50;;;0.50;;
7477;SDS011;3780;42.424;25.636;2022-12-13T01:03:26;0.40;;;0.38;;
7477;SDS011;3780;42.424;25.636;2022-12-13T01:05:51;0.50;;;0.50;;
7477;SDS011;3780;42.424;25.636;2022-12-13T01:08:16;1.67;;;0.60;;
7477;SDS011;3780;42.424;25.636;2022-12-13T01:10:43;0.60;;;0.60;;
7477;SDS011;3780;42.424;25.636;2022-12-13T01:13:08;1.52;;;0.60;;
7477;SDS011;3780;42.424;25.636;2022-12-13T01:15:34;0.80;;;0.60;;
7477;SDS011;3780;42.424;25.636;2022-12-13T01:17:59;1.13;;;0.70;;
7477;SDS011;3780;42.424;25.636;2022-12-13T01:20:24;0.95;;;0.60;;
7477;SDS011;3780;42.424;25.636;2022-12-13T01:22:49;1.88;;;0.85;;
7477;SDS011;3780;42.424;25.636;2022-12-13T01:25:15;0.68;;;0.60;;
7477;SDS011;3780;42.424;25.636;2022-12-13T01:27:40;1.00;;;0.75;;
7477;SDS011;3780;42.424;25.636;2022-12-13T01:30:05;1.00;;;0.70;;
7477;SDS011;3780;42.424;25.636;2022-12-13T01:32:31;2.08;;;0.70;;
7477;SDS011;3780;42.424;25.636;2022-12-13T01:34:56;3.20;;;1.30;;
7477;SDS011;3780;42.424;25.636;2022-12-13T01:37:22;1.70;;;1.20;;
7477;SDS011;3780;42.424;25.636;2022-12-13T01:39:47;2.20;;;1.52;;
7477;SDS011;3780;42.424;25.636;2022-12-13T01:42:12;1.88;;;1.35;;
7477;SDS011;3780;42.424;25.636;2022-12-13T01:47:17;2.85;;;1.00;;
7477;SDS011;3780;42.424;25.636;2022-12-13T01:49:43;0.93;;;0.70;;
7477;SDS011;3780;42.424;25.636;2022-12-13T01:52:08;0.90;;;0.73;;
7477;SDS011;3780;42.424;25.636;2022-12-13T01:54:37;1.08;;;0.80;;
7477;SDS011;3780;42.424;25.636;2022-12-13T01:57:05;1.00;;;0.80;;
7477;SDS011;3780;42.424;25.636;2022-12-13T01:59:32;1.10;;;1.00;;
7477;SDS011;3780;42.424;25.636;2022-12-13T02:01:58;1.30;;;0.98;;
7477;SDS011;3780;42.424;25.636;2022-12-13T02:04:25;0.90;;;0.80;;
7477;SDS011;3780;42.424;25.636;2022-12-13T02:06:52;1.20;;;0.82;;
7477;SDS011;3780;42.424;25.636;2022-12-13T02:09:19;0.82;;;0.70;;
7477;SDS011;3780;42.424;25.636;2022-12-13T02:11:45;1.30;;;0.90;;
7477;SDS011;3780;42.424;25.636;2022-12-13T02:14:11;0.80;;;0.70;;
7477;SDS011;3780;42.424;25.636;2022-12-13T02:41:03;1.08;;;0.75;;
7477;SDS011;3780;42.424;25.636;2022-12-13T02:43:44;1.30;;;0.70;;
7477;SDS011;3780;42.424;25.636;2022-12-13T02:46:09;1.40;;;1.05;;
7477;SDS011;3780;42.424;25.636;2022-12-13T02:48:36;1.15;;;0.90;;
7477;SDS011;3780;42.424;25.636;2022-12-13T02:51:02;1.77;;;1.10;;
7477;SDS011;3780;42.424;25.636;2022-12-13T02:53:29;1.40;;;0.80;;
7477;SDS011;3780;42.424;25.636;2022-12-13T02:55:55;0.98;;;0.90;;
7477;SDS011;3780;42.424;25.636;2022-12-13T02:58:24;1.10;;;0.70;;
7477;SDS011;3780;42.424;25.636;2022-12-13T03:06:11;1.13;;;0.90;;
7477;SDS011;3780;42.424;25.636;2022-12-13T03:14:25;2.05;;;1.30;;
7477;SDS011;3780;42.424;25.636;2022-12-13T03:16:50;1.75;;;1.33;;
7477;SDS011;3780;42.424;25.636;2022-12-13T03:19:17;1.75;;;1.33;;
7477;SDS011;3780;42.424;25.636;2022-12-13T03:21:47;1.70;;;1.30;;
7477;SDS011;3780;42.424;25.636;2022-12-13T03:24:13;1.83;;;1.40;;
7477;SDS011;3780;42.424;25.636;2022-12-13T03:26:40;1.98;;;1.60;;
7477;SDS011;3780;42.424;25.636;2022-12-13T03:29:06;1.50;;;1.20;;
7477;SDS011;3780;42.424;25.636;2022-12-13T03:31:31;2.58;;;1.90;;
7477;SDS011;3780;42.424;25.636;2022-12-13T03:33:57;1.30;;;1.20;;
7477;SDS011;3780;42.424;25.636;2022-12-13T03:36:22;1.95;;;1.70;;
7477;SDS011;3780;42.424;25.636;2022-12-13T03:38:48;1.90;;;1.70;;
7477;SDS011;3780;42.424;25.636;2022-12-13T03:41:15;2.42;;;1.90;;
7477;SDS011;3780;42.424;25.636;2022-12-13T03:43:41;3.42;;;2.17;;
7477;SDS011;3780;42.424;25.636;2022-12-13T03:46:06;2.85;;;2.30;;
7477;SDS011;3780;42.424;25.636;2022-12-13T03:48:31;3.35;;;2.80;;
7477;SDS011;3780;42.424;25.636;2022-12-13T03:50:57;8.27;;;3.70;;
7477;SDS011;3780;42.424;25.636;2022-12-13T03:53:23;4.13;;;2.80;;
7477;SDS011;3780;42.424;25.636;2022-12-13T03:55:48;3.20;;;2.20;;
7477;SDS011;3780;42.424;25.636;2022-12-13T03:58:14;3.05;;;2.30;;
7477;SDS011;3780;42.424;25.636;2022-12-13T04:00:39;3.67;;;3.33;;
7477;SDS011;3780;42.424;25.636;2022-12-13T04:03:04;4.30;;;2.95;;
7477;SDS011;3780;42.424;25.636;2022-12-13T04:05:30;3.53;;;3.20;;
7477;SDS011;3780;42.424;25.636;2022-12-13T04:07:55;4.00;;;3.22;;
7477;SDS011;3780;42.424;25.636;2022-12-13T04:10:21;5.25;;;3.75;;
7477;SDS011;3780;42.424;25.636;2022-12-13T04:12:46;4.00;;;3.42;;
7477;SDS011;3780;42.424;25.636;2022-12-13T04:15:30;3.10;;;2.78;;
7477;SDS011;3780;42.424;25.636;2022-12-13T04:17:55;3.30;;;3.00;;
7477;SDS011;3780;42.424;25.636;2022-12-13T04:20:21;3.53;;;3.00;;
7477;SDS011;3780;42.424;25.636;2022-12-13T04:22:46;4.55;;;3.22;;
7477;SDS011;3780;42.424;25.636;2022-12-13T04:25:11;5.97;;;2.92;;
7477;SDS011;3780;42.424;25.636;2022-12-13T04:27:37;3.53;;;2.92;;
7477;SDS011;3780;42.424;25.636;2022-12-13T04:30:05;4.18;;;3.50;;
7477;SDS011;3780;42.424;25.636;2022-12-13T04:32:31;4.72;;;4.22;;
7477;SDS011;3780;42.424;25.636;2022-12-13T04:34:56;4.00;;;3.40;;
7477;SDS011;3780;42.424;25.636;2022-12-13T04:37:21;4.43;;;3.53;;
7477;SDS011;3780;42.424;25.636;2022-12-13T04:39:47;4.72;;;3.40;;
7477;SDS011;3780;42.424;25.636;2022-12-13T04:42:12;4.40;;;3.47;;
7477;SDS011;3780;42.424;25.636;2022-12-13T04:44:37;4.13;;;3.70;;
7477;SDS011;3780;42.424;25.636;2022-12-13T04:47:03;3.83;;;3.17;;
7477;SDS011;3780;42.424;25.636;2022-12-13T04:49:29;4.82;;;3.58;;
7477;SDS011;3780;42.424;25.636;2022-12-13T04:51:54;3.97;;;3.38;;
7477;SDS011;3780;42.424;25.636;2022-12-13T04:54:20;3.80;;;3.20;;
7477;SDS011;3780;42.424;25.636;2022-12-13T04:56:45;4.63;;;3.88;;
7477;SDS011;3780;42.424;25.636;2022-12-13T04:59:10;4.25;;;3.28;;
7477;SDS011;3780;42.424;25.636;2022-12-13T05:01:35;4.03;;;3.45;;
7477;SDS011;3780;42.424;25.636;2022-12-13T05:04:01;5.00;;;3.35;;
7477;SDS011;3780;42.424;25.636;2022-12-13T05:06:27;4.18;;;3.75;;
7477;SDS011;3780;42.424;25.636;2022-12-13T05:08:52;6.22;;;4.07;;
7477;SDS011;3780;42.424;25.636;2022-12-13T05:11:17;4.85;;;3.47;;
7477;SDS011;3780;42.424;25.636;2022-12-13T05:13:43;6.07;;;4.60;;
7477;SDS011;3780;42.424;25.636;2022-12-13T05:16:08;5.90;;;4.78;;
7477;SDS011;3780;42.424;25.636;2022-12-13T05:18:34;6.00;;;4.82;;
7477;SDS011;3780;42.424;25.636;2022-12-13T05:21:03;8.38;;;6.82;;
7477;SDS011;3780;42.424;25.636;2022-12-13T05:23:29;17.90;;;16.10;;
7477;SDS011;3780;42.424;25.636;2022-12-13T05:25:54;7.28;;;6.03;;
7477;SDS011;3780;42.424;25.636;2022-12-13T05:28:20;7.55;;;5.22;;
7477;SDS011;3780;42.424;25.636;2022-12-13T05:30:45;7.65;;;5.63;;
7477;SDS011;3780;42.424;25.636;2022-12-13T05:33:10;6.15;;;5.07;;
7477;SDS011;3780;42.424;25.636;2022-12-13T05:35:36;7.35;;;5.45;;
7477;SDS011;3780;42.424;25.636;2022-12-13T05:38:02;7.25;;;5.80;;
7477;SDS011;3780;42.424;25.636;2022-12-13T05:40:28;5.60;;;4.32;;
7477;SDS011;3780;42.424;25.636;2022-12-13T05:42:54;5.47;;;4.65;;
7477;SDS011;3780;42.424;25.636;2022-12-13T05:45:19;6.60;;;4.72;;
7477;SDS011;3780;42.424;25.636;2022-12-13T05:47:45;5.38;;;4.45;;
7477;SDS011;3780;42.424;25.636;2022-12-13T05:50:11;6.13;;;4.90;;
7477;SDS011;3780;42.424;25.636;2022-12-13T05:52:36;6.40;;;5.20;;
7477;SDS011;3780;42.424;25.636;2022-12-13T05:55:02;13.15;;;9.52;;
7477;SDS011;3780;42.424;25.636;2022-12-13T05:57:27;10.90;;;8.73;;
7477;SDS011;3780;42.424;25.636;2022-12-13T05:59:53;10.07;;;7.88;;
7477;SDS011;3780;42.424;25.636;2022-12-13T06:02:19;9.60;;;5.70;;
7477;SDS011;3780;42.424;25.636;2022-12-13T06:04:44;7.95;;;5.82;;
7477;SDS011;3780;42.424;25.636;2022-12-13T06:07:10;17.80;;;13.40;;
7477;SDS011;3780;42.424;25.636;2022-12-13T06:09:35;8.98;;;7.07;;
7477;SDS011;3780;42.424;25.636;2022-12-13T06:12:00;31.20;;;21.23;;
7477;SDS011;3780;42.424;25.636;2022-12-13T06:14:26;22.88;;;15.50;;
7477;SDS011;3780;42.424;25.636;2022-12-13T06:16:51;10.88;;;8.52;;
7477;SDS011;3780;42.424;25.636;2022-12-13T06:19:16;41.45;;;29.33;;
7477;SDS011;3780;42.424;25.636;2022-12-13T06:21:42;28.80;;;19.42;;
7477;SDS011;3780;42.424;25.636;2022-12-13T06:24:07;6.78;;;4.88;;
7477;SDS011;3780;42.424;25.636;2022-12-13T06:26:33;5.57;;;4.60;;
7477;SDS011;3780;42.424;25.636;2022-12-13T06:28:58;6.07;;;4.30;;
7477;SDS011;3780;42.424;25.636;2022-12-13T06:31:24;7.85;;;6.43;;
7477;SDS011;3780;42.424;25.636;2022-12-13T06:33:49;7.75;;;6.05;;
7477;SDS011;3780;42.424;25.636;2022-12-13T06:36:14;5.88;;;4.63;;
7477;SDS011;3780;42.424;25.636;2022-12-13T06:38:40;6.53;;;5.03;;
7477;SDS011;3780;42.424;25.636;2022-12-13T06:41:12;7.28;;;4.68;;
7477;SDS011;3780;42.424;25.636;2022-12-13T06:43:40;9.23;;;4.05;;
7477;SDS011;3780;42.424;25.636;2022-12-13T06:46:05;6.00;;;4.95;;
7477;SDS011;3780;42.424;25.636;2022-12-13T06:48:31;9.82;;;4.78;;
7477;SDS011;3780;42.424;25.636;2022-12-13T06:51:03;8.88;;;4.82;;
7477;SDS011;3780;42.424;25.636;2022-12-13T06:53:28;6.88;;;4.82;;
7477;SDS011;3780;42.424;25.636;2022-12-13T06:55:54;6.63;;;4.45;;
7477;SDS011;3780;42.424;25.636;2022-12-13T06:58:20;6.93;;;4.65;;
7477;SDS011;3780;42.424;25.636;2022-12-13T07:00:45;6.95;;;4.70;;
7477;SDS011;3780;42.424;25.636;2022-12-13T07:03:10;10.85;;;4.95;;
7477;SDS011;3780;42.424;25.636;2022-12-13T07:05:36;10.07;;;5.47;;
7477;SDS011;3780;42.424;25.636;2022-12-13T07:08:02;10.88;;;6.40;;
7477;SDS011;3780;42.424;25.636;2022-12-13T07:10:27;7.28;;;3.95;;
7477;SDS011;3780;42.424;25.636;2022-12-13T07:12:52;6.68;;;4.68;;
7477;SDS011;3780;42.424;25.636;2022-12-13T07:15:18;7.53;;;5.38;;
7477;SDS011;3780;42.424;25.636;2022-12-13T07:17:43;6.65;;;4.15;;
7477;SDS011;3780;42.424;25.636;2022-12-13T07:20:08;8.13;;;4.38;;
7477;SDS011;3780;42.424;25.636;2022-12-13T07:22:35;9.00;;;4.32;;
7477;SDS011;3780;42.424;25.636;2022-12-13T07:25:00;38.95;;;21.55;;
7477;SDS011;3780;42.424;25.636;2022-12-13T07:27:27;9.27;;;5.55;;
7477;SDS011;3780;42.424;25.636;2022-12-13T07:29:52;9.50;;;6.78;;
7477;SDS011;3780;42.424;25.636;2022-12-13T07:32:18;7.15;;;5.30;;
7477;SDS011;3780;42.424;25.636;2022-12-13T07:34:43;8.77;;;4.75;;
7477;SDS011;3780;42.424;25.636;2022-12-13T07:37:08;6.97;;;5.13;;
7477;SDS011;3780;42.424;25.636;2022-12-13T07:39:33;14.80;;;6.30;;
7477;SDS011;3780;42.424;25.636;2022-12-13T07:41:59;9.10;;;5.30;;
7477;SDS011;3780;42.424;25.636;2022-12-13T07:44:24;14.57;;;6.03;;
7477;SDS011;3780;42.424;25.636;2022-12-13T07:46:49;8.93;;;5.28;;
7477;SDS011;3780;42.424;25.636;2022-12-13T07:49:15;19.63;;;9.50;;
7477;SDS011;3780;42.424;25.636;2022-12-13T07:51:40;9.82;;;5.45;;
7477;SDS011;3780;42.424;25.636;2022-12-13T07:54:05;8.18;;;5.05;;
7477;SDS011;3780;42.424;25.636;2022-12-13T07:56:32;12.18;;;4.38;;
7477;SDS011;3780;42.424;25.636;2022-12-13T07:58:58;11.10;;;4.07;;
7477;SDS011;3780;42.424;25.636;2022-12-13T08:01:23;9.63;;;3.80;;
7477;SDS011;3780;42.424;25.636;2022-12-13T08:03:48;8.60;;;4.20;;
7477;SDS011;3780;42.424;25.636;2022-12-13T08:06:14;9.30;;;5.57;;
7477;SDS011;3780;42.424;25.636;2022-12-13T08:08:39;7.90;;;4.93;;
7477;SDS011;3780;42.424;25.636;2022-12-13T08:11:08;5.57;;;4.15;;
7477;SDS011;3780;42.424;25.636;2022-12-13T08:13:34;11.00;;;5.10;;
7477;SDS011;3780;42.424;25.636;2022-12-13T08:16:00;8.35;;;4.47;;
7477;SDS011;3780;42.424;25.636;2022-12-13T08:18:26;12.60;;;6.57;;
7477;SDS011;3780;42.424;25.636;2022-12-13T08:20:51;13.30;;;6.78;;
7477;SDS011;3780;42.424;25.636;2022-12-13T08:23:17;9.75;;;5.63;;
7477;SDS011;3780;42.424;25.636;2022-12-13T08:25:42;8.65;;;4.93;;
7477;SDS011;3780;42.424;25.636;2022-12-13T08:28:07;12.75;;;5.35;;
7477;SDS011;3780;42.424;25.636;2022-12-13T08:30:33;7.32;;;4.38;;
7477;SDS011;3780;42.424;25.636;2022-12-13T08:32:58;11.93;;;5.70;;
7477;SDS011;3780;42.424;25.636;2022-12-13T08:35:26;5.90;;;3.97;;
7477;SDS011;3780;42.424;25.636;2022-12-13T08:37:51;6.53;;;3.63;;
7477;SDS011;3780;42.424;25.636;2022-12-13T08:40:16;12.07;;;4.80;;
7477;SDS011;3780;42.424;25.636;2022-12-13T08:42:42;7.93;;;4.80;;
7477;SDS011;3780;42.424;25.636;2022-12-13T08:45:07;19.92;;;8.40;;
7477;SDS011;3780;42.424;25.636;2022-12-13T08:47:32;45.25;;;27.15;;
7477;SDS011;3780;42.424;25.636;2022-12-13T08:49:58;11.20;;;7.20;;
7477;SDS011;3780;42.424;25.636;2022-12-13T08:52:23;10.35;;;5.70;;
7477;SDS011;3780;42.424;25.636;2022-12-13T08:54:49;17.42;;;5.30;;
7477;SDS011;3780;42.424;25.636;2022-12-13T08:57:14;9.00;;;4.82;;
7477;SDS011;3780;42.424;25.636;2022-12-13T08:59:39;10.18;;;5.80;;
7477;SDS011;3780;42.424;25.636;2022-12-13T09:02:05;20.13;;;10.40;;
7477;SDS011;3780;42.424;25.636;2022-12-13T09:04:30;13.77;;;7.78;;
7477;SDS011;3780;42.424;25.636;2022-12-13T09:06:55;16.35;;;9.52;;
7477;SDS011;3780;42.424;25.636;2022-12-13T09:09:21;26.35;;;8.15;;
7477;SDS011;3780;42.424;25.636;2022-12-13T09:11:46;9.68;;;6.05;;
7477;SDS011;3780;42.424;25.636;2022-12-13T09:14:11;12.27;;;6.25;;
7477;SDS011;3780;42.424;25.636;2022-12-13T09:16:37;18.73;;;12.43;;
7477;SDS011;3780;42.424;25.636;2022-12-13T09:19:05;14.52;;;10.13;;
7477;SDS011;3780;42.424;25.636;2022-12-13T09:21:30;17.65;;;9.80;;
7477;SDS011;3780;42.424;25.636;2022-12-13T09:23:56;8.40;;;5.10;;
7477;SDS011;3780;42.424;25.636;2022-12-13T09:26:22;12.30;;;6.93;;
7477;SDS011;3780;42.424;25.636;2022-12-13T09:28:47;19.45;;;12.02;;
7477;SDS011;3780;42.424;25.636;2022-12-13T09:31:14;14.00;;;9.27;;
7477;SDS011;3780;42.424;25.636;2022-12-13T09:33:40;11.95;;;6.50;;
7477;SDS011;3780;42.424;25.636;2022-12-13T09:36:06;23.45;;;7.10;;
7477;SDS011;3780;42.424;25.636;2022-12-13T09:38:35;11.43;;;6.43;;
7477;SDS011;3780;42.424;25.636;2022-12-13T09:41:20;17.10;;;11.57;;
7477;SDS011;3780;42.424;25.636;2022-12-13T09:43:48;17.33;;;11.88;;
7477;SDS011;3780;42.424;25.636;2022-12-13T09:46:24;21.60;;;12.90;;
7477;SDS011;3780;42.424;25.636;2022-12-13T09:48:51;16.63;;;8.27;;
7477;SDS011;3780;42.424;25.636;2022-12-13T09:51:17;9.20;;;5.32;;
7477;SDS011;3780;42.424;25.636;2022-12-13T09:53:42;15.52;;;6.00;;
7477;SDS011;3780;42.424;25.636;2022-12-13T09:56:10;17.13;;;6.55;;
7477;SDS011;3780;42.424;25.636;2022-12-13T09:58:36;26.05;;;14.52;;
7477;SDS011;3780;42.424;25.636;2022-12-13T10:01:01;16.85;;;6.30;;
7477;SDS011;3780;42.424;25.636;2022-12-13T10:03:28;18.13;;;5.97;;
7477;SDS011;3780;42.424;25.636;2022-12-13T10:05:58;19.65;;;5.43;;
7477;SDS011;3780;42.424;25.636;2022-12-13T10:08:26;9.93;;;6.40;;
7477;SDS011;3780;42.424;25.636;2022-12-13T10:10:52;14.38;;;6.18;;
7477;SDS011;3780;42.424;25.636;2022-12-13T10:16:13;21.10;;;6.70;;
7477;SDS011;3780;42.424;25.636;2022-12-13T10:18:42;11.45;;;5.03;;
7477;SDS011;3780;42.424;25.636;2022-12-13T10:21:09;23.67;;;5.90;;
7477;SDS011;3780;42.424;25.636;2022-12-13T10:23:35;11.93;;;5.45;;
7477;SDS011;3780;42.424;25.636;2022-12-13T10:26:00;10.75;;;4.88;;
7477;SDS011;3780;42.424;25.636;2022-12-13T10:28:32;9.00;;;5.00;;
7477;SDS011;3780;42.424;25.636;2022-12-13T10:30:58;9.77;;;4.95;;
7477;SDS011;3780;42.424;25.636;2022-12-13T10:33:28;10.45;;;5.30;;
7477;SDS011;3780;42.424;25.636;2022-12-13T10:36:02;13.50;;;4.75;;
7477;SDS011;3780;42.424;25.636;2022-12-13T10:38:28;9.55;;;6.10;;
7477;SDS011;3780;42.424;25.636;2022-12-13T10:40:54;15.02;;;4.60;;
7477;SDS011;3780;42.424;25.636;2022-12-13T10:43:20;10.50;;;5.10;;
7477;SDS011;3780;42.424;25.636;2022-12-13T10:48:21;11.68;;;7.97;;
7477;SDS011;3780;42.424;25.636;2022-12-13T10:50:57;26.30;;;13.02;;
7477;SDS011;3780;42.424;25.636;2022-12-13T10:53:26;10.95;;;7.38;;
7477;SDS011;3780;42.424;25.636;2022-12-13T10:55:53;11.77;;;7.32;;
7477;SDS011;3780;42.424;25.636;2022-12-13T10:58:20;10.15;;;6.63;;
7477;SDS011;3780;42.424;25.636;2022-12-13T11:00:46;19.25;;;11.77;;
7477;SDS011;3780;42.424;25.636;2022-12-13T11:03:34;15.07;;;8.00;;
7477;SDS011;3780;42.424;25.636;2022-12-13T11:06:05;17.52;;;12.77;;
7477;SDS011;3780;42.424;25.636;2022-12-13T11:08:31;19.98;;;8.93;;
7477;SDS011;3780;42.424;25.636;2022-12-13T11:11:00;16.70;;;7.03;;
7477;SDS011;3780;42.424;25.636;2022-12-13T11:13:35;10.73;;;6.47;;
7477;SDS011;3780;42.424;25.636;2022-12-13T11:16:03;8.95;;;4.70;;
7477;SDS011;3780;42.424;25.636;2022-12-13T11:18:33;11.07;;;5.05;;
7477;SDS011;3780;42.424;25.636;2022-12-13T11:21:00;9.77;;;5.13;;
7477;SDS011;3780;42.424;25.636;2022-12-13T11:23:37;13.07;;;5.40;;
7477;SDS011;3780;42.424;25.636;2022-12-13T11:26:10;12.02;;;5.22;;
7477;SDS011;3780;42.424;25.636;2022-12-13T11:39:36;8.15;;;4.25;;
7477;SDS011;3780;42.424;25.636;2022-12-13T11:44:37;6.72;;;4.88;;
7477;SDS011;3780;42.424;25.636;2022-12-13T11:47:04;14.45;;;6.72;;
7477;SDS011;3780;42.424;25.636;2022-12-13T11:49:34;19.30;;;9.75;;
7477;SDS011;3780;42.424;25.636;2022-12-13T11:52:12;20.38;;;10.27;;
7477;SDS011;3780;42.424;25.636;2022-12-13T11:57:29;13.95;;;5.75;;
7477;SDS011;3780;42.424;25.636;2022-12-13T12:00:06;13.73;;;6.03;;
7477;SDS011;3780;42.424;25.636;2022-12-13T12:02:37;17.17;;;13.52;;
7477;SDS011;3780;42.424;25.636;2022-12-13T12:05:05;28.63;;;17.05;;
7477;SDS011;3780;42.424;25.636;2022-12-13T12:09:57;11.93;;;9.07;;
7477;SDS011;3780;42.424;25.636;2022-12-13T12:15:11;10.45;;;5.47;;
7477;SDS011;3780;42.424;25.636;2022-12-13T12:17:34;14.38;;;7.32;;
7477;SDS011;3780;42.424;25.636;2022-12-13T12:19:59;16.02;;;7.57;;
7477;SDS011;3780;42.424;25.636;2022-12-13T12:25:21;10.93;;;5.20;;
7477;SDS011;3780;42.424;25.636;2022-12-13T12:35:43;13.18;;;6.00;;
7477;SDS011;3780;42.424;25.636;2022-12-13T12:50:43;14.40;;;5.67;;
7477;SDS011;3780;42.424;25.636;2022-12-13T12:56:06;10.25;;;5.88;;
7477;SDS011;3780;42.424;25.636;2022-12-13T13:04:07;13.48;;;6.25;;
7477;SDS011;3780;42.424;25.636;2022-12-13T13:06:35;8.88;;;5.03;;
7477;SDS011;3780;42.424;25.636;2022-12-13T13:09:06;9.77;;;5.95;;
7477;SDS011;3780;42.424;25.636;2022-12-13T13:11:33;11.93;;;7.80;;
7477;SDS011;3780;42.424;25.636;2022-12-13T13:14:01;21.23;;;7.60;;
7477;SDS011;3780;42.424;25.636;2022-12-13T13:16:32;14.98;;;10.60;;
7477;SDS011;3780;42.424;25.636;2022-12-13T13:19:01;11.95;;;6.78;;
7477;SDS011;3780;42.424;25.636;2022-12-13T13:26:29;16.60;;;10.50;;
7477;SDS011;3780;42.424;25.636;2022-12-13T13:29:19;16.27;;;10.02;;
7477;SDS011;3780;42.424;25.636;2022-12-13T13:34:22;14.27;;;9.60;;
7477;SDS011;3780;42.424;25.636;2022-12-13T13:36:47;11.02;;;7.35;;
7477;SDS011;3780;42.424;25.636;2022-12-13T13:39:17;16.10;;;8.82;;
7477;SDS011;3780;42.424;25.636;2022-12-13T13:44:34;16.50;;;8.98;;
7477;SDS011;3780;42.424;25.636;2022-12-13T13:52:24;10.70;;;6.85;;
7477;SDS011;3780;42.424;25.636;2022-12-13T14:31:57;19.67;;;7.85;;
7477;SDS011;3780;42.424;25.636;2022-12-13T14:34:02;24.33;;;11.00;;
7477;SDS011;3780;42.424;25.636;2022-12-13T14:36:29;16.83;;;7.32;;
7477;SDS011;3780;42.424;25.636;2022-12-13T14:39:02;12.20;;;7.50;;
7477;SDS011;3780;42.424;25.636;2022-12-13T14:41:27;13.18;;;6.95;;
7477;SDS011;3780;42.424;25.636;2022-12-13T14:43:53;17.38;;;6.25;;
7477;SDS011;3780;42.424;25.636;2022-12-13T14:46:19;8.73;;;5.43;;
7477;SDS011;3780;42.424;25.636;2022-12-13T14:48:45;9.40;;;5.70;;
7477;SDS011;3780;42.424;25.636;2022-12-13T14:51:31;15.40;;;5.97;;
7477;SDS011;3780;42.424;25.636;2022-12-13T14:53:57;19.60;;;8.35;;
7477;SDS011;3780;42.424;25.636;2022-12-13T14:56:24;30.13;;;10.00;;
7477;SDS011;3780;42.424;25.636;2022-12-13T14:58:53;33.35;;;11.30;;
7477;SDS011;3780;42.424;25.636;2022-12-13T15:01:26;51.17;;;17.77;;
7477;SDS011;3780;42.424;25.636;2022-12-13T15:03:52;24.48;;;13.30;;
7477;SDS011;3780;42.424;25.636;2022-12-13T15:06:17;71.25;;;41.85;;
7477;SDS011;3780;42.424;25.636;2022-12-13T15:08:44;30.17;;;12.60;;
7477;SDS011;3780;42.424;25.636;2022-12-13T15:11:10;13.93;;;7.60;;
7477;SDS011;3780;42.424;25.636;2022-12-13T15:13:39;22.48;;;7.78;;
7477;SDS011;3780;42.424;25.636;2022-12-13T15:16:06;17.08;;;8.32;;
7477;SDS011;3780;42.424;25.636;2022-12-13T15:18:34;20.83;;;7.28;;
7477;SDS011;3780;42.424;25.636;2022-12-13T15:21:00;31.15;;;12.23;;
7477;SDS011;3780;42.424;25.636;2022-12-13T15:23:26;26.45;;;10.23;;
7477;SDS011;3780;42.424;25.636;2022-12-13T15:25:57;23.25;;;9.38;;
7477;SDS011;3780;42.424;25.636;2022-12-13T15:28:27;21.23;;;9.45;;
7477;SDS011;3780;42.424;25.636;2022-12-13T15:30:54;22.77;;;10.30;;
7477;SDS011;3780;42.424;25.636;2022-12-13T15:33:21;25.55;;;10.00;;
7477;SDS011;3780;42.424;25.636;2022-12-13T15:35:47;19.58;;;11.13;;
7477;SDS011;3780;42.424;25.636;2022-12-13T15:38:13;25.17;;;15.45;;
7477;SDS011;3780;42.424;25.636;2022-12-13T15:40:46;24.40;;;12.93;;
7477;SDS011;3780;42.424;25.636;2022-12-13T15:43:13;35.38;;;14.50;;
7477;SDS011;3780;42.424;25.636;2022-12-13T15:45:38;31.25;;;15.55;;
7477;SDS011;3780;42.424;25.636;2022-12-13T15:48:04;22.58;;;11.45;;
7477;SDS011;3780;42.424;25.636;2022-12-13T15:53:03;18.85;;;8.82;;
7477;SDS011;3780;42.424;25.636;2022-12-13T15:55:33;31.48;;;13.27;;
7477;SDS011;3780;42.424;25.636;2022-12-13T15:57:59;27.52;;;11.30;;
7477;SDS011;3780;42.424;25.636;2022-12-13T16:00:26;18.70;;;9.77;;
7477;SDS011;3780;42.424;25.636;2022-12-13T16:02:54;27.52;;;12.60;;
7477;SDS011;3780;42.424;25.636;2022-12-13T16:05:30;27.08;;;12.30;;
7477;SDS011;3780;42.424;25.636;2022-12-13T16:07:57;28.08;;;12.88;;
7477;SDS011;3780;42.424;25.636;2022-12-13T16:10:24;26.48;;;12.70;;
7477;SDS011;3780;42.424;25.636;2022-12-13T16:12:51;36.30;;;14.68;;
7477;SDS011;3780;42.424;25.636;2022-12-13T16:15:18;24.77;;;12.85;;
7477;SDS011;3780;42.424;25.636;2022-12-13T16:17:44;25.15;;;12.70;;
7477;SDS011;3780;42.424;25.636;2022-12-13T16:20:14;23.23;;;11.82;;
7477;SDS011;3780;42.424;25.636;2022-12-13T16:22:39;25.55;;;11.25;;
7477;SDS011;3780;42.424;25.636;2022-12-13T16:25:05;25.58;;;12.43;;
7477;SDS011;3780;42.424;25.636;2022-12-13T16:27:30;16.05;;;10.73;;
7477;SDS011;3780;42.424;25.636;2022-12-13T16:29:56;48.13;;;20.63;;
7477;SDS011;3780;42.424;25.636;2022-12-13T16:32:21;70.78;;;36.35;;
7477;SDS011;3780;42.424;25.636;2022-12-13T16:34:46;44.00;;;18.75;;
7477;SDS011;3780;42.424;25.636;2022-12-13T16:37:12;37.15;;;14.80;;
7477;SDS011;3780;42.424;25.636;2022-12-13T16:39:37;36.92;;;15.27;;
7477;SDS011;3780;42.424;25.636;2022-12-13T16:42:02;40.10;;;16.38;;
7477;SDS011;3780;42.424;25.636;2022-12-13T16:44:37;22.20;;;12.77;;
7477;SDS011;3780;42.424;25.636;2022-12-13T16:47:06;23.83;;;14.05;;
7477;SDS011;3780;42.424;25.636;2022-12-13T16:49:31;73.78;;;19.35;;
7477;SDS011;3780;42.424;25.636;2022-12-13T16:51:57;32.40;;;13.85;;
7477;SDS011;3780;42.424;25.636;2022-12-13T16:54:24;28.58;;;13.27;;
7477;SDS011;3780;42.424;25.636;2022-12-13T16:56:50;32.25;;;12.25;;
7477;SDS011;3780;42.424;25.636;2022-12-13T16:59:16;20.00;;;9.93;;
7477;SDS011;3780;42.424;25.636;2022-12-13T17:01:42;28.35;;;12.90;;
7477;SDS011;3780;42.424;25.636;2022-12-13T17:04:12;25.42;;;11.85;;
7477;SDS011;3780;42.424;25.636;2022-12-13T17:06:38;27.52;;;11.43;;
7477;SDS011;3780;42.424;25.636;2022-12-13T17:09:04;25.75;;;12.35;;
7477;SDS011;3780;42.424;25.636;2022-12-13T17:11:33;35.83;;;12.60;;
7477;SDS011;3780;42.424;25.636;2022-12-13T17:13:58;22.77;;;13.23;;
7477;SDS011;3780;42.424;25.636;2022-12-13T17:16:24;30.80;;;17.60;;
7477;SDS011;3780;42.424;25.636;2022-12-13T17:18:49;31.27;;;17.00;;
7477;SDS011;3780;42.424;25.636;2022-12-13T17:21:15;22.60;;;13.60;;